sensor_id;sensor_type;location;lat;lon;timestamp;pressure;altitude;pressure_sealevel;temperature;humidity
67099;BME280;54288;53.046;5.668;2022-12-18T00:00:47;102893.88;;;-3.38;100.00
67099;BME280;54288;53.046;5.668;2022-12-18T00:03:14;102874.25;;;-3.51;100.00
67099;BME280;54288;53.046;5.668;2022-12-18T00:05:50;102894.47;;;-3.42;100.00
67099;BME280;54288;53.046;5.668;2022-12-18T00:08:17;102896.91;;;-3.44;100.00
67099;BME280;54288;53.046;5.668;2022-12-18T00:10:44;102923.25;;;-3.33;100.00
67099;BME280;54288;53.046;5.668;2022-12-18T00:13:12;102932.81;;;-3.31;100.00
67099;BME280;54288;53.046;5.668;2022-12-18T00:15:39;102928.16;;;-3.36;100.00
67099;BME280;54288;53.046;5.668;2022-12-18T00:18:05;102933.47;;;-3.33;100.00
67099;BME280;54288;53.046;5.668;2022-12-18T00:20:36;102935.84;;;-3.36;100.00
67099;BME280;54288;53.046;5.668;2022-12-18T00:23:02;102941.94;;;-3.34;100.00
67099;BME280;54288;53.046;5.668;2022-12-18T00:25:27;102943.94;;;-3.30;100.00
67099;BME280;54288;53.046;5.668;2022-12-18T00:27:53;102949.06;;;-3.30;100.00
67099;BME280;54288;53.046;5.668;2022-12-18T00:30:19;102956.19;;;-3.26;100.00
67099;BME280;54288;53.046;5.668;2022-12-18T00:32:44;102933.75;;;-3.42;100.00
67099;BME280;54288;53.046;5.668;2022-12-18T00:35:10;102939.97;;;-3.38;100.00
67099;BME280;54288;53.046;5.668;2022-12-18T00:37:36;102931.97;;;-3.43;100.00
67099;BME280;54288;53.046;5.668;2022-12-18T00:40:03;102926.16;;;-3.40;100.00
67099;BME280;54288;53.046;5.668;2022-12-18T00:42:28;102940.06;;;-3.37;100.00
67099;BME280;54288;53.046;5.668;2022-12-18T00:45:13;102929.53;;;-3.41;100.00
67099;BME280;54288;53.046;5.668;2022-12-18T00:47:39;102926.16;;;-3.40;100.00
67099;BME280;54288;53.046;5.668;2022-12-18T00:50:05;102919.59;;;-3.37;100.00
67099;BME280;54288;53.046;5.668;2022-12-18T00:52:31;102923.03;;;-3.36;100.00
67099;BME280;54288;53.046;5.668;2022-12-18T00:54:56;102921.94;;;-3.40;100.00
67099;BME280;54288;53.046;5.668;2022-12-18T00:57:22;102938.00;;;-3.42;100.00
67099;BME280;54288;53.046;5.668;2022-12-18T00:59:48;102934.69;;;-3.53;100.00
67099;BME280;54288;53.046;5.668;2022-12-18T01:02:13;102940.69;;;-3.52;100.00
67099;BME280;54288;53.046;5.668;2022-12-18T01:04:39;102951.63;;;-3.55;100.00
67099;BME280;54288;53.046;5.668;2022-12-18T01:07:04;102943.94;;;-3.55;100.00
67099;BME280;54288;53.046;5.668;2022-12-18T01:09:30;102927.50;;;-3.70;100.00
67099;BME280;54288;53.046;5.668;2022-12-18T01:11:56;102931.09;;;-3.68;100.00
67099;BME280;54288;53.046;5.668;2022-12-18T01:14:22;102920.41;;;-3.74;100.00
67099;BME280;54288;53.046;5.668;2022-12-18T01:16:47;102942.41;;;-3.64;100.00
67099;BME280;54288;53.046;5.668;2022-12-18T01:19:13;102923.28;;;-3.69;100.00
67099;BME280;54288;53.046;5.668;2022-12-18T01:21:39;102912.50;;;-3.77;100.00
67099;BME280;54288;53.046;5.668;2022-12-18T01:24:05;102901.06;;;-3.82;100.00
67099;BME280;54288;53.046;5.668;2022-12-18T01:26:32;102945.41;;;-3.58;100.00
67099;BME280;54288;53.046;5.668;2022-12-18T01:28:58;102928.63;;;-3.66;100.00
67099;BME280;54288;53.046;5.668;2022-12-18T01:31:28;102906.00;;;-3.85;100.00
67099;BME280;54288;53.046;5.668;2022-12-18T01:33:55;102935.25;;;-3.81;100.00
67099;BME280;54288;53.046;5.668;2022-12-18T01:36:27;102924.56;;;-3.87;100.00
67099;BME280;54288;53.046;5.668;2022-12-18T01:38:55;102940.91;;;-3.85;100.00
67099;BME280;54288;53.046;5.668;2022-12-18T01:41:26;102952.72;;;-3.87;100.00
67099;BME280;54288;53.046;5.668;2022-12-18T01:43:55;102933.59;;;-4.04;100.00
67099;BME280;54288;53.046;5.668;2022-12-18T01:46:26;102951.16;;;-3.85;100.00
67099;BME280;54288;53.046;5.668;2022-12-18T01:48:57;102965.59;;;-3.74;100.00
67099;BME280;54288;53.046;5.668;2022-12-18T01:51:27;102965.94;;;-3.81;100.00
67099;BME280;54288;53.046;5.668;2022-12-18T01:53:55;102945.59;;;-3.91;100.00
67099;BME280;54288;53.046;5.668;2022-12-18T01:56:22;102953.94;;;-3.94;100.00
67099;BME280;54288;53.046;5.668;2022-12-18T01:58:56;102970.63;;;-3.87;100.00
67099;BME280;54288;53.046;5.668;2022-12-18T02:01:25;102942.41;;;-4.00;100.00
67099;BME280;54288;53.046;5.668;2022-12-18T02:03:51;102937.41;;;-4.10;100.00
67099;BME280;54288;53.046;5.668;2022-12-18T02:06:33;102960.75;;;-4.06;100.00
67099;BME280;54288;53.046;5.668;2022-12-18T02:09:13;102959.66;;;-4.09;100.00
67099;BME280;54288;53.046;5.668;2022-12-18T02:14:49;102991.47;;;-3.94;100.00
67099;BME280;54288;53.046;5.668;2022-12-18T02:17:23;102971.78;;;-4.07;100.00
67099;BME280;54288;53.046;5.668;2022-12-18T02:20:16;102972.31;;;-3.99;100.00
67099;BME280;54288;53.046;5.668;2022-12-18T02:23:19;102949.09;;;-4.25;100.00
67099;BME280;54288;53.046;5.668;2022-12-18T02:28:31;102938.22;;;-4.34;100.00
67099;BME280;54288;53.046;5.668;2022-12-18T02:31:06;102950.88;;;-4.24;100.00
67099;BME280;54288;53.046;5.668;2022-12-18T02:33:35;102951.44;;;-4.28;100.00
67099;BME280;54288;53.046;5.668;2022-12-18T02:36:03;102945.66;;;-4.37;100.00
67099;BME280;54288;53.046;5.668;2022-12-18T02:38:33;102953.56;;;-4.34;100.00
67099;BME280;54288;53.046;5.668;2022-12-18T02:41:06;102957.78;;;-4.35;100.00
67099;BME280;54288;53.046;5.668;2022-12-18T02:43:32;102949.00;;;-4.38;100.00
67099;BME280;54288;53.046;5.668;2022-12-18T02:46:00;102940.88;;;-4.44;100.00
67099;BME280;54288;53.046;5.668;2022-12-18T02:48:34;102944.13;;;-4.47;100.00
67099;BME280;54288;53.046;5.668;2022-12-18T02:51:18;102950.88;;;-4.47;100.00
67099;BME280;54288;53.046;5.668;2022-12-18T02:54:10;102956.22;;;-4.44;100.00
67099;BME280;54288;53.046;5.668;2022-12-18T02:56:54;102945.69;;;-4.49;100.00
67099;BME280;54288;53.046;5.668;2022-12-18T02:59:31;102954.22;;;-4.48;100.00
67099;BME280;54288;53.046;5.668;2022-12-18T03:02:23;102951.22;;;-4.54;100.00
67099;BME280;54288;53.046;5.668;2022-12-18T03:05:00;102958.00;;;-4.55;100.00
67099;BME280;54288;53.046;5.668;2022-12-18T03:07:46;102951.56;;;-4.61;100.00
67099;BME280;54288;53.046;5.668;2022-12-18T03:10:19;102967.00;;;-4.60;100.00
67099;BME280;54288;53.046;5.668;2022-12-18T03:13:08;102965.97;;;-4.62;100.00
67099;BME280;54288;53.046;5.668;2022-12-18T03:15:42;102957.09;;;-4.67;100.00
67099;BME280;54288;53.046;5.668;2022-12-18T03:18:36;102957.22;;;-4.65;100.00
67099;BME280;54288;53.046;5.668;2022-12-18T03:21:05;102958.97;;;-4.64;100.00
67099;BME280;54288;53.046;5.668;2022-12-18T03:23:40;102946.00;;;-4.67;100.00
67099;BME280;54288;53.046;5.668;2022-12-18T03:26:15;102931.41;;;-4.80;100.00
67099;BME280;54288;53.046;5.668;2022-12-18T03:28:53;102940.00;;;-4.79;100.00
67099;BME280;54288;53.046;5.668;2022-12-18T03:31:23;102932.31;;;-4.79;100.00
67099;BME280;54288;53.046;5.668;2022-12-18T03:34:04;102925.75;;;-4.87;100.00
67099;BME280;54288;53.046;5.668;2022-12-18T03:36:40;102944.06;;;-4.81;100.00
67099;BME280;54288;53.046;5.668;2022-12-18T03:39:06;102940.66;;;-4.70;100.00
67099;BME280;54288;53.046;5.668;2022-12-18T03:41:46;102932.00;;;-4.72;100.00
67099;BME280;54288;53.046;5.668;2022-12-18T03:44:35;102914.94;;;-4.95;100.00
67099;BME280;54288;53.046;5.668;2022-12-18T03:47:28;102944.31;;;-4.78;100.00
67099;BME280;54288;53.046;5.668;2022-12-18T03:50:15;102902.84;;;-5.09;100.00
67099;BME280;54288;53.046;5.668;2022-12-18T03:53:04;102949.19;;;-4.81;100.00
67099;BME280;54288;53.046;5.668;2022-12-18T03:55:35;102922.28;;;-4.99;100.00
67099;BME280;54288;53.046;5.668;2022-12-18T03:58:07;102929.72;;;-5.02;100.00
67099;BME280;54288;53.046;5.668;2022-12-18T04:00:51;102930.59;;;-5.02;100.00
67099;BME280;54288;53.046;5.668;2022-12-18T04:03:20;102917.72;;;-5.03;100.00
67099;BME280;54288;53.046;5.668;2022-12-18T04:05:51;102919.72;;;-4.99;100.00
67099;BME280;54288;53.046;5.668;2022-12-18T04:08:22;102913.38;;;-5.04;100.00
67099;BME280;54288;53.046;5.668;2022-12-18T04:10:59;102921.81;;;-5.05;100.00
67099;BME280;54288;53.046;5.668;2022-12-18T04:13:31;102931.19;;;-4.94;100.00
67099;BME280;54288;53.046;5.668;2022-12-18T04:16:00;102922.81;;;-5.03;100.00
67099;BME280;54288;53.046;5.668;2022-12-18T04:18:27;102951.28;;;-4.87;100.00
67099;BME280;54288;53.046;5.668;2022-12-18T04:20:53;102921.28;;;-5.01;100.00
67099;BME280;54288;53.046;5.668;2022-12-18T04:23:19;102952.97;;;-4.88;100.00
67099;BME280;54288;53.046;5.668;2022-12-18T04:25:47;102919.16;;;-5.07;100.00
67099;BME280;54288;53.046;5.668;2022-12-18T04:28:18;102937.47;;;-5.01;100.00
67099;BME280;54288;53.046;5.668;2022-12-18T04:30:43;102902.63;;;-5.12;100.00
67099;BME280;54288;53.046;5.668;2022-12-18T04:33:17;102925.84;;;-4.97;100.00
67099;BME280;54288;53.046;5.668;2022-12-18T04:35:43;102921.50;;;-4.98;100.00
67099;BME280;54288;53.046;5.668;2022-12-18T04:38:10;102929.94;;;-4.99;100.00
67099;BME280;54288;53.046;5.668;2022-12-18T04:40:36;102941.72;;;-5.01;100.00
67099;BME280;54288;53.046;5.668;2022-12-18T04:43:10;102933.72;;;-5.06;100.00
67099;BME280;54288;53.046;5.668;2022-12-18T04:45:35;102944.28;;;-5.01;100.00
67099;BME280;54288;53.046;5.668;2022-12-18T04:48:02;102949.25;;;-5.03;100.00
67099;BME280;54288;53.046;5.668;2022-12-18T04:50:29;102958.56;;;-5.03;100.00
67099;BME280;54288;53.046;5.668;2022-12-18T04:52:55;102955.69;;;-5.08;100.00
67099;BME280;54288;53.046;5.668;2022-12-18T04:55:24;102950.13;;;-5.14;100.00
67099;BME280;54288;53.046;5.668;2022-12-18T04:57:49;102952.78;;;-5.12;100.00
67099;BME280;54288;53.046;5.668;2022-12-18T05:00:15;102946.22;;;-5.20;100.00
67099;BME280;54288;53.046;5.668;2022-12-18T05:02:41;102949.53;;;-5.21;100.00
67099;BME280;54288;53.046;5.668;2022-12-18T05:05:07;102944.34;;;-5.23;100.00
67099;BME280;54288;53.046;5.668;2022-12-18T05:07:33;102943.56;;;-5.22;100.00
67099;BME280;54288;53.046;5.668;2022-12-18T05:09:58;102944.44;;;-5.21;100.00
67099;BME280;54288;53.046;5.668;2022-12-18T05:12:24;102948.53;;;-5.23;100.00
67099;BME280;54288;53.046;5.668;2022-12-18T05:14:50;102963.88;;;-5.23;100.00
67099;BME280;54288;53.046;5.668;2022-12-18T05:17:15;102957.84;;;-5.24;100.00
67099;BME280;54288;53.046;5.668;2022-12-18T05:19:41;102971.53;;;-5.23;100.00
67099;BME280;54288;53.046;5.668;2022-12-18T05:22:07;102981.72;;;-5.23;100.00
67099;BME280;54288;53.046;5.668;2022-12-18T05:24:32;102971.97;;;-5.29;100.00
67099;BME280;54288;53.046;5.668;2022-12-18T05:26:58;102970.28;;;-5.28;100.00
67099;BME280;54288;53.046;5.668;2022-12-18T05:29:24;102996.53;;;-5.19;100.00
67099;BME280;54288;53.046;5.668;2022-12-18T05:31:49;102990.75;;;-5.17;100.00
67099;BME280;54288;53.046;5.668;2022-12-18T05:34:15;103000.06;;;-5.17;100.00
67099;BME280;54288;53.046;5.668;2022-12-18T05:36:41;102993.41;;;-5.15;100.00
67099;BME280;54288;53.046;5.668;2022-12-18T05:39:06;102996.75;;;-5.16;100.00
67099;BME280;54288;53.046;5.668;2022-12-18T05:41:32;102987.84;;;-5.21;100.00
67099;BME280;54288;53.046;5.668;2022-12-18T05:43:58;102984.53;;;-5.20;100.00
67099;BME280;54288;53.046;5.668;2022-12-18T05:46:24;102998.28;;;-5.18;100.00
67099;BME280;54288;53.046;5.668;2022-12-18T05:48:50;102998.16;;;-5.20;100.00
67099;BME280;54288;53.046;5.668;2022-12-18T05:51:18;102997.41;;;-5.19;100.00
67099;BME280;54288;53.046;5.668;2022-12-18T05:53:45;103007.53;;;-5.20;100.00
67099;BME280;54288;53.046;5.668;2022-12-18T05:56:14;102998.28;;;-5.18;100.00
67099;BME280;54288;53.046;5.668;2022-12-18T05:58:41;103006.28;;;-5.25;100.00
67099;BME280;54288;53.046;5.668;2022-12-18T06:01:16;103005.25;;;-5.27;100.00
67099;BME280;54288;53.046;5.668;2022-12-18T06:03:43;102999.78;;;-5.32;100.00
67099;BME280;54288;53.046;5.668;2022-12-18T06:06:23;102998.88;;;-5.32;100.00
67099;BME280;54288;53.046;5.668;2022-12-18T06:08:50;102992.66;;;-5.36;100.00
67099;BME280;54288;53.046;5.668;2022-12-18T06:11:19;102989.75;;;-5.40;100.00
67099;BME280;54288;53.046;5.668;2022-12-18T06:13:46;102993.31;;;-5.38;100.00
67099;BME280;54288;53.046;5.668;2022-12-18T06:16:12;102976.00;;;-5.42;100.00
67099;BME280;54288;53.046;5.668;2022-12-18T06:18:38;102972.44;;;-5.44;100.00
67099;BME280;54288;53.046;5.668;2022-12-18T06:21:03;102955.88;;;-5.49;100.00
67099;BME280;54288;53.046;5.668;2022-12-18T06:23:29;102953.75;;;-5.55;100.00
67099;BME280;54288;53.046;5.668;2022-12-18T06:25:55;102946.09;;;-5.55;100.00
67099;BME280;54288;53.046;5.668;2022-12-18T06:28:20;102947.53;;;-5.58;100.00
67099;BME280;54288;53.046;5.668;2022-12-18T06:30:47;102936.72;;;-5.66;100.00
67099;BME280;54288;53.046;5.668;2022-12-18T06:33:14;102949.94;;;-5.60;100.00
67099;BME280;54288;53.046;5.668;2022-12-18T06:35:41;102951.25;;;-5.65;100.00
67099;BME280;54288;53.046;5.668;2022-12-18T06:38:07;102944.03;;;-5.70;100.00
67099;BME280;54288;53.046;5.668;2022-12-18T06:40:33;102945.34;;;-5.75;100.00
67099;BME280;54288;53.046;5.668;2022-12-18T06:42:58;102946.97;;;-5.76;100.00
67099;BME280;54288;53.046;5.668;2022-12-18T06:45:24;102947.56;;;-5.80;100.00
67099;BME280;54288;53.046;5.668;2022-12-18T06:47:50;102947.31;;;-5.83;100.00
67099;BME280;54288;53.046;5.668;2022-12-18T06:50:15;102923.75;;;-5.90;100.00
67099;BME280;54288;53.046;5.668;2022-12-18T06:52:41;102924.53;;;-5.91;100.00
67099;BME280;54288;53.046;5.668;2022-12-18T06:55:10;102929.63;;;-5.91;100.00
67099;BME280;54288;53.046;5.668;2022-12-18T06:57:37;102939.84;;;-5.91;100.00
67099;BME280;54288;53.046;5.668;2022-12-18T07:00:05;102931.41;;;-5.90;100.00
67099;BME280;54288;53.046;5.668;2022-12-18T07:02:31;102913.44;;;-5.92;100.00
67099;BME280;54288;53.046;5.668;2022-12-18T07:04:56;102911.44;;;-5.96;100.00
67099;BME280;54288;53.046;5.668;2022-12-18T07:07:22;102919.09;;;-5.96;100.00
67099;BME280;54288;53.046;5.668;2022-12-18T07:09:49;102911.31;;;-5.97;100.00
67099;BME280;54288;53.046;5.668;2022-12-18T07:12:15;102920.59;;;-5.98;100.00
67099;BME280;54288;53.046;5.668;2022-12-18T07:14:41;102920.59;;;-5.98;100.00
67099;BME280;54288;53.046;5.668;2022-12-18T07:17:06;102924.84;;;-5.98;100.00
67099;BME280;54288;53.046;5.668;2022-12-18T07:19:32;102928.25;;;-5.98;100.00
67099;BME280;54288;53.046;5.668;2022-12-18T07:21:58;102935.03;;;-5.98;100.00
67099;BME280;54288;53.046;5.668;2022-12-18T07:24:23;102926.25;;;-6.02;100.00
67099;BME280;54288;53.046;5.668;2022-12-18T07:26:49;102910.84;;;-6.03;100.00
67099;BME280;54288;53.046;5.668;2022-12-18T07:29:14;102919.59;;;-6.00;100.00
67099;BME280;54288;53.046;5.668;2022-12-18T07:31:40;102898.88;;;-6.04;100.00
67099;BME280;54288;53.046;5.668;2022-12-18T07:34:10;102918.63;;;-6.02;100.00
67099;BME280;54288;53.046;5.668;2022-12-18T07:36:36;102924.56;;;-6.01;100.00
67099;BME280;54288;53.046;5.668;2022-12-18T07:39:01;102919.47;;;-6.01;100.00
67099;BME280;54288;53.046;5.668;2022-12-18T07:41:27;102906.63;;;-6.03;100.00
67099;BME280;54288;53.046;5.668;2022-12-18T07:43:52;102909.28;;;-6.01;100.00
67099;BME280;54288;53.046;5.668;2022-12-18T07:46:18;102913.59;;;-6.00;100.00
67099;BME280;54288;53.046;5.668;2022-12-18T07:48:45;102908.88;;;-5.96;100.00
67099;BME280;54288;53.046;5.668;2022-12-18T07:51:13;102908.34;;;-5.92;100.00
67099;BME280;54288;53.046;5.668;2022-12-18T07:53:39;102901.59;;;-5.91;100.00
67099;BME280;54288;53.046;5.668;2022-12-18T07:56:08;102894.94;;;-5.89;100.00
67099;BME280;54288;53.046;5.668;2022-12-18T07:58:35;102896.19;;;-5.84;100.00
67099;BME280;54288;53.046;5.668;2022-12-18T08:01:06;102891.44;;;-5.80;100.00
67099;BME280;54288;53.046;5.668;2022-12-18T08:03:33;102886.41;;;-5.78;100.00
67099;BME280;54288;53.046;5.668;2022-12-18T08:06:07;102876.34;;;-5.77;100.00
67099;BME280;54288;53.046;5.668;2022-12-18T08:08:33;102879.22;;;-5.72;100.00
67099;BME280;54288;53.046;5.668;2022-12-18T08:10:59;102873.59;;;-5.68;100.00
67099;BME280;54288;53.046;5.668;2022-12-18T08:13:26;102882.38;;;-5.65;100.00
67099;BME280;54288;53.046;5.668;2022-12-18T08:16:04;102887.59;;;-5.63;100.00
67099;BME280;54288;53.046;5.668;2022-12-18T08:18:35;102883.41;;;-5.63;100.00
67099;BME280;54288;53.046;5.668;2022-12-18T08:21:09;102875.75;;;-5.63;100.00
67099;BME280;54288;53.046;5.668;2022-12-18T08:23:35;102896.16;;;-5.51;100.00
67099;BME280;54288;53.046;5.668;2022-12-18T08:26:01;102897.16;;;-5.49;100.00
67099;BME280;54288;53.046;5.668;2022-12-18T08:28:27;102907.84;;;-5.43;100.00
67099;BME280;54288;53.046;5.668;2022-12-18T08:30:52;102898.78;;;-5.40;100.00
67099;BME280;54288;53.046;5.668;2022-12-18T08:33:18;102902.53;;;-5.35;100.00
67099;BME280;54288;53.046;5.668;2022-12-18T08:35:44;102899.25;;;-5.34;100.00
67099;BME280;54288;53.046;5.668;2022-12-18T08:38:09;102899.56;;;-5.29;100.00
67099;BME280;54288;53.046;5.668;2022-12-18T08:40:35;102912.81;;;-5.23;100.00
67099;BME280;54288;53.046;5.668;2022-12-18T08:43:01;102894.81;;;-5.25;100.00
67099;BME280;54288;53.046;5.668;2022-12-18T08:45:45;102905.19;;;-5.12;100.00
67099;BME280;54288;53.046;5.668;2022-12-18T08:48:11;102895.06;;;-5.10;100.00
67099;BME280;54288;53.046;5.668;2022-12-18T08:50:36;102902.63;;;-5.00;100.00
67099;BME280;54288;53.046;5.668;2022-12-18T08:53:02;102910.97;;;-4.91;100.00
67099;BME280;54288;53.046;5.668;2022-12-18T08:55:28;102903.66;;;-4.87;100.00
67099;BME280;54288;53.046;5.668;2022-12-18T08:57:54;102891.31;;;-4.81;100.00
67099;BME280;54288;53.046;5.668;2022-12-18T09:00:19;102905.31;;;-4.76;100.00
67099;BME280;54288;53.046;5.668;2022-12-18T09:02:45;102902.56;;;-4.67;100.00
67099;BME280;54288;53.046;5.668;2022-12-18T09:05:11;102911.78;;;-4.58;100.00
67099;BME280;54288;53.046;5.668;2022-12-18T09:07:36;102909.78;;;-4.50;100.00
67099;BME280;54288;53.046;5.668;2022-12-18T09:10:03;102907.09;;;-4.40;100.00
67099;BME280;54288;53.046;5.668;2022-12-18T09:12:29;102906.75;;;-4.33;100.00
67099;BME280;54288;53.046;5.668;2022-12-18T09:14:54;102908.63;;;-4.19;100.00
67099;BME280;54288;53.046;5.668;2022-12-18T09:17:21;102908.97;;;-4.15;100.00
67099;BME280;54288;53.046;5.668;2022-12-18T09:19:47;102922.06;;;-4.10;100.00
67099;BME280;54288;53.046;5.668;2022-12-18T09:22:13;102912.81;;;-4.08;100.00
67099;BME280;54288;53.046;5.668;2022-12-18T09:24:38;102897.03;;;-4.03;100.00
67099;BME280;54288;53.046;5.668;2022-12-18T09:27:04;102919.66;;;-3.84;100.00
67099;BME280;54288;53.046;5.668;2022-12-18T09:29:30;102904.66;;;-3.80;100.00
67099;BME280;54288;53.046;5.668;2022-12-18T09:31:56;102913.59;;;-3.73;100.00
67099;BME280;54288;53.046;5.668;2022-12-18T09:34:22;102917.59;;;-3.65;100.00
67099;BME280;54288;53.046;5.668;2022-12-18T09:36:48;102871.16;;;-3.83;100.00
67099;BME280;54288;53.046;5.668;2022-12-18T09:39:14;102869.44;;;-3.71;100.00
67099;BME280;54288;53.046;5.668;2022-12-18T09:41:55;102856.53;;;-3.72;100.00
67099;BME280;54288;53.046;5.668;2022-12-18T09:49:46;102851.44;;;-3.35;100.00
67099;BME280;54288;53.046;5.668;2022-12-18T09:52:35;102860.81;;;-3.22;100.00
67099;BME280;54288;53.046;5.668;2022-12-18T09:58:06;102870.19;;;-3.23;100.00
67099;BME280;54288;53.046;5.668;2022-12-18T10:00:38;102840.59;;;-3.31;100.00
67099;BME280;54288;53.046;5.668;2022-12-18T10:03:10;102823.00;;;-3.26;100.00
67099;BME280;54288;53.046;5.668;2022-12-18T10:11:58;102826.06;;;-2.93;100.00
67099;BME280;54288;53.046;5.668;2022-12-18T10:17:45;102835.53;;;-2.79;100.00
67099;BME280;54288;53.046;5.668;2022-12-18T10:20:34;102807.44;;;-2.90;100.00
67099;BME280;54288;53.046;5.668;2022-12-18T10:23:27;102825.28;;;-2.66;100.00
67099;BME280;54288;53.046;5.668;2022-12-18T10:26:08;102825.69;;;-2.60;100.00
67099;BME280;54288;53.046;5.668;2022-12-18T10:28:40;102786.94;;;-2.77;100.00
67099;BME280;54288;53.046;5.668;2022-12-18T10:33:41;102804.47;;;-2.57;100.00
67099;BME280;54288;53.046;5.668;2022-12-18T10:36:08;102796.69;;;-2.59;100.00
67099;BME280;54288;53.046;5.668;2022-12-18T10:38:34;102813.72;;;-2.46;100.00
67099;BME280;54288;53.046;5.668;2022-12-18T10:43:44;102797.13;;;-2.38;100.00
67099;BME280;54288;53.046;5.668;2022-12-18T10:48:40;102791.88;;;-2.40;99.55
67099;BME280;54288;53.046;5.668;2022-12-18T10:51:24;102781.09;;;-2.49;99.14
67099;BME280;54288;53.046;5.668;2022-12-18T10:56:31;102762.81;;;-2.53;98.36
67099;BME280;54288;53.046;5.668;2022-12-18T10:59:05;102783.00;;;-2.32;98.15
67099;BME280;54288;53.046;5.668;2022-12-18T11:01:58;102746.16;;;-2.47;98.12
67099;BME280;54288;53.046;5.668;2022-12-18T11:04:32;102748.91;;;-2.44;97.75
67099;BME280;54288;53.046;5.668;2022-12-18T11:07:04;102778.72;;;-2.18;97.35
67099;BME280;54288;53.046;5.668;2022-12-18T11:12:36;102796.75;;;-2.04;96.75
67099;BME280;54288;53.046;5.668;2022-12-18T11:15:05;102799.38;;;-2.02;96.19
67099;BME280;54288;53.046;5.668;2022-12-18T11:17:37;102755.72;;;-2.17;96.37
67099;BME280;54288;53.046;5.668;2022-12-18T11:20:31;102755.53;;;-2.20;96.14
67099;BME280;54288;53.046;5.668;2022-12-18T11:23:16;102758.63;;;-2.11;96.26
67099;BME280;54288;53.046;5.668;2022-12-18T11:26:03;102733.88;;;-2.10;96.01
67099;BME280;54288;53.046;5.668;2022-12-18T11:38:42;102736.69;;;-1.78;95.17
67099;BME280;54288;53.046;5.668;2022-12-18T11:45:18;102724.56;;;-1.66;93.81
67099;BME280;54288;53.046;5.668;2022-12-18T12:20:00;102658.97;;;-1.31;90.51
67099;BME280;54288;53.046;5.668;2022-12-18T12:25:09;102643.63;;;-1.29;89.37
67099;BME280;54288;53.046;5.668;2022-12-18T12:39:31;102610.47;;;-1.41;90.25
67099;BME280;54288;53.046;5.668;2022-12-18T12:41:58;102608.13;;;-1.36;90.25
67099;BME280;54288;53.046;5.668;2022-12-18T12:44:47;102600.25;;;-1.39;90.32
67099;BME280;54288;53.046;5.668;2022-12-18T12:47:47;102622.78;;;-1.19;90.03
67099;BME280;54288;53.046;5.668;2022-12-18T12:50:17;102608.31;;;-1.33;90.12
67099;BME280;54288;53.046;5.668;2022-12-18T12:52:53;102644.25;;;-1.19;90.03
67099;BME280;54288;53.046;5.668;2022-12-18T12:55:24;102596.91;;;-1.38;90.14
67099;BME280;54288;53.046;5.668;2022-12-18T12:58:18;102623.06;;;-1.29;89.29
67099;BME280;54288;53.046;5.668;2022-12-18T13:03:56;102635.06;;;-1.14;90.36
67099;BME280;54288;53.046;5.668;2022-12-18T13:06:54;102614.75;;;-1.25;89.99
67099;BME280;54288;53.046;5.668;2022-12-18T13:09:34;102602.03;;;-1.38;89.77
67099;BME280;54288;53.046;5.668;2022-12-18T13:12:16;102604.94;;;-1.32;90.34
67099;BME280;54288;53.046;5.668;2022-12-18T13:17:49;102593.94;;;-1.30;90.58
67099;BME280;54288;53.046;5.668;2022-12-18T13:20:37;102557.22;;;-1.43;91.25
67099;BME280;54288;53.046;5.668;2022-12-18T13:31:00;102567.84;;;-1.37;91.63
67099;BME280;54288;53.046;5.668;2022-12-18T13:33:36;102596.13;;;-1.21;91.46
67099;BME280;54288;53.046;5.668;2022-12-18T13:36:32;102589.38;;;-1.19;91.84
67099;BME280;54288;53.046;5.668;2022-12-18T13:41:40;102574.44;;;-1.26;91.74
67099;BME280;54288;53.046;5.668;2022-12-18T13:47:31;102562.88;;;-1.18;91.79
67099;BME280;54288;53.046;5.668;2022-12-18T13:49:58;102557.25;;;-1.27;92.13
67099;BME280;54288;53.046;5.668;2022-12-18T13:52:28;102555.56;;;-1.27;91.71
67099;BME280;54288;53.046;5.668;2022-12-18T13:55:02;102563.44;;;-1.24;92.13
67099;BME280;54288;53.046;5.668;2022-12-18T13:57:36;102560.94;;;-1.22;92.06
67099;BME280;54288;53.046;5.668;2022-12-18T14:00:26;102544.22;;;-1.30;92.23
67099;BME280;54288;53.046;5.668;2022-12-18T14:02:54;102548.84;;;-1.25;92.11
67099;BME280;54288;53.046;5.668;2022-12-18T14:05:29;102549.88;;;-1.21;92.05
67099;BME280;54288;53.046;5.668;2022-12-18T14:08:02;102535.63;;;-1.31;92.30
67099;BME280;54288;53.046;5.668;2022-12-18T14:10:30;102533.25;;;-1.28;92.50
67099;BME280;54288;53.046;5.668;2022-12-18T14:13:05;102526.63;;;-1.39;92.41
67099;BME280;54288;53.046;5.668;2022-12-18T14:15:43;102502.47;;;-1.42;92.58
67099;BME280;54288;53.046;5.668;2022-12-18T14:20:59;102522.06;;;-1.28;92.92
67099;BME280;54288;53.046;5.668;2022-12-18T14:23:31;102512.44;;;-1.32;92.57
67099;BME280;54288;53.046;5.668;2022-12-18T14:25:59;102515.06;;;-1.31;92.56
67099;BME280;54288;53.046;5.668;2022-12-18T14:28:26;102511.63;;;-1.31;92.77
67099;BME280;54288;53.046;5.668;2022-12-18T14:30:53;102458.25;;;-1.53;93.13
67099;BME280;54288;53.046;5.668;2022-12-18T14:33:26;102440.19;;;-1.54;92.58
67099;BME280;54288;53.046;5.668;2022-12-18T14:35:57;102474.84;;;-1.30;92.68
67099;BME280;54288;53.046;5.668;2022-12-18T14:38:36;102477.44;;;-1.30;92.95
67099;BME280;54288;53.046;5.668;2022-12-18T14:41:22;102448.28;;;-1.47;93.03
67099;BME280;54288;53.046;5.668;2022-12-18T14:43:51;102457.84;;;-1.44;92.68
67099;BME280;54288;53.046;5.668;2022-12-18T14:49:00;102459.50;;;-1.45;93.53
67099;BME280;54288;53.046;5.668;2022-12-18T14:51:33;102458.38;;;-1.50;93.01
67099;BME280;54288;53.046;5.668;2022-12-18T14:54:06;102448.91;;;-1.51;92.81
67099;BME280;54288;53.046;5.668;2022-12-18T14:56:47;102447.41;;;-1.47;93.23
67099;BME280;54288;53.046;5.668;2022-12-18T14:59:21;102429.91;;;-1.54;92.40
67099;BME280;54288;53.046;5.668;2022-12-18T15:02:01;102473.09;;;-1.31;93.07
67099;BME280;54288;53.046;5.668;2022-12-18T15:04:40;102448.34;;;-1.29;93.18